sensor_id;sensor_type;location;lat;lon;timestamp;pressure;altitude;pressure_sealevel;temperature;humidity
57668;BME280;43499;52.366;12.912;2023-02-13T00:00:10;103448.19;;;6.78;100.00
57668;BME280;43499;52.366;12.912;2023-02-13T00:01:17;103338.97;;;6.26;100.00
57668;BME280;43499;52.366;12.912;2023-02-13T00:02:26;103447.25;;;6.78;100.00
57668;BME280;43499;52.366;12.912;2023-02-13T00:03:30;103424.63;;;6.66;100.00
57668;BME280;43499;52.366;12.912;2023-02-13T00:04:36;103349.72;;;6.35;100.00
57668;BME280;43499;52.366;12.912;2023-02-13T00:05:37;103439.41;;;6.78;100.00
57668;BME280;43499;52.366;12.912;2023-02-13T00:06:39;103442.03;;;6.78;100.00
57668;BME280;43499;52.366;12.912;2023-02-13T00:07:42;103373.31;;;6.47;100.00
57668;BME280;43499;52.366;12.912;2023-02-13T00:08:43;103370.06;;;6.43;100.00
57668;BME280;43499;52.366;12.912;2023-02-13T00:09:44;103326.72;;;6.19;100.00
57668;BME280;43499;52.366;12.912;2023-02-13T00:10:50;103342.59;;;6.21;100.00
57668;BME280;43499;52.366;12.912;2023-02-13T00:11:51;103357.81;;;6.36;100.00
57668;BME280;43499;52.366;12.912;2023-02-13T00:12:55;103436.34;;;6.75;100.00
57668;BME280;43499;52.366;12.912;2023-02-13T00:13:59;103372.97;;;6.39;100.00
57668;BME280;43499;52.366;12.912;2023-02-13T00:15:00;103355.84;;;6.22;100.00
57668;BME280;43499;52.366;12.912;2023-02-13T00:16:03;103359.53;;;6.30;100.00
57668;BME280;43499;52.366;12.912;2023-02-13T00:17:10;103328.69;;;6.14;100.00
57668;BME280;43499;52.366;12.912;2023-02-13T00:18:18;103425.97;;;6.69;100.00
57668;BME280;43499;52.366;12.912;2023-02-13T00:19:38;103371.28;;;6.39;100.00
57668;BME280;43499;52.366;12.912;2023-02-13T00:20:39;103430.25;;;6.69;100.00
57668;BME280;43499;52.366;12.912;2023-02-13T00:21:47;103401.91;;;6.59;100.00
57668;BME280;43499;52.366;12.912;2023-02-13T00:22:58;103396.13;;;6.48;100.00
57668;BME280;43499;52.366;12.912;2023-02-13T00:23:59;103391.09;;;6.50;100.00
57668;BME280;43499;52.366;12.912;2023-02-13T00:25:00;103371.59;;;6.35;100.00
57668;BME280;43499;52.366;12.912;2023-02-13T00:26:15;103387.84;;;6.45;100.00
57668;BME280;43499;52.366;12.912;2023-02-13T00:27:22;103336.28;;;6.13;100.00
57668;BME280;43499;52.366;12.912;2023-02-13T00:28:29;103372.53;;;6.36;100.00
57668;BME280;43499;52.366;12.912;2023-02-13T00:29:39;103384.25;;;6.45;100.00
57668;BME280;43499;52.366;12.912;2023-02-13T00:30:40;103352.50;;;6.23;100.00
57668;BME280;43499;52.366;12.912;2023-02-13T00:31:44;103365.22;;;6.33;100.00
57668;BME280;43499;52.366;12.912;2023-02-13T00:32:46;103326.56;;;6.12;100.00
57668;BME280;43499;52.366;12.912;2023-02-13T00:33:47;103427.22;;;6.66;100.00
57668;BME280;43499;52.366;12.912;2023-02-13T00:34:49;103379.88;;;6.38;100.00
57668;BME280;43499;52.366;12.912;2023-02-13T00:35:50;103319.09;;;6.02;100.00
57668;BME280;43499;52.366;12.912;2023-02-13T00:36:57;103368.41;;;6.25;100.00
57668;BME280;43499;52.366;12.912;2023-02-13T00:37:58;103347.44;;;6.12;100.00
57668;BME280;43499;52.366;12.912;2023-02-13T00:39:11;103370.72;;;6.29;100.00
57668;BME280;43499;52.366;12.912;2023-02-13T00:40:12;103346.00;;;6.14;100.00
57668;BME280;43499;52.366;12.912;2023-02-13T00:41:18;103410.72;;;6.41;100.00
57668;BME280;43499;52.366;12.912;2023-02-13T00:42:25;103428.25;;;6.60;100.00
57668;BME280;43499;52.366;12.912;2023-02-13T00:43:26;103380.75;;;6.26;100.00
57668;BME280;43499;52.366;12.912;2023-02-13T00:44:27;103387.78;;;6.32;100.00
57668;BME280;43499;52.366;12.912;2023-02-13T00:45:28;103364.44;;;6.21;100.00
57668;BME280;43499;52.366;12.912;2023-02-13T00:46:46;103378.78;;;6.30;100.00
57668;BME280;43499;52.366;12.912;2023-02-13T00:47:50;103338.50;;;6.04;100.00
57668;BME280;43499;52.366;12.912;2023-02-13T00:49:01;103344.63;;;6.10;100.00
57668;BME280;43499;52.366;12.912;2023-02-13T00:50:13;103365.66;;;6.17;100.00
57668;BME280;43499;52.366;12.912;2023-02-13T00:51:23;103360.41;;;6.17;100.00
57668;BME280;43499;52.366;12.912;2023-02-13T00:52:28;103434.06;;;6.52;100.00
57668;BME280;43499;52.366;12.912;2023-02-13T00:53:35;103388.91;;;6.35;100.00
57668;BME280;43499;52.366;12.912;2023-02-13T00:55:05;103324.13;;;5.95;100.00
57668;BME280;43499;52.366;12.912;2023-02-13T00:56:19;103399.44;;;6.29;100.00
57668;BME280;43499;52.366;12.912;2023-02-13T00:57:20;103396.19;;;6.24;100.00
57668;BME280;43499;52.366;12.912;2023-02-13T00:58:44;103343.38;;;5.95;100.00
57668;BME280;43499;52.366;12.912;2023-02-13T00:59:56;103355.16;;;6.05;100.00
57668;BME280;43499;52.366;12.912;2023-02-13T01:01:09;103317.09;;;5.88;100.00
57668;BME280;43499;52.366;12.912;2023-02-13T01:02:11;103399.69;;;6.30;100.00
57668;BME280;43499;52.366;12.912;2023-02-13T01:03:22;103428.91;;;6.46;100.00
57668;BME280;43499;52.366;12.912;2023-02-13T01:04:30;103352.84;;;5.95;100.00
57668;BME280;43499;52.366;12.912;2023-02-13T01:05:32;103318.34;;;5.84;100.00
57668;BME280;43499;52.366;12.912;2023-02-13T01:07:09;103339.06;;;5.96;100.00
57668;BME280;43499;52.366;12.912;2023-02-13T01:08:17;103371.19;;;6.13;100.00
57668;BME280;43499;52.366;12.912;2023-02-13T01:09:23;103421.59;;;6.44;100.00
57668;BME280;43499;52.366;12.912;2023-02-13T01:10:27;103377.97;;;6.18;100.00
57668;BME280;43499;52.366;12.912;2023-02-13T01:11:35;103428.69;;;6.45;100.00
57668;BME280;43499;52.366;12.912;2023-02-13T01:12:39;103414.13;;;6.34;100.00
57668;BME280;43499;52.366;12.912;2023-02-13T01:13:44;103382.66;;;6.27;100.00
57668;BME280;43499;52.366;12.912;2023-02-13T01:14:54;103415.28;;;6.36;100.00
57668;BME280;43499;52.366;12.912;2023-02-13T01:15:56;103398.25;;;6.32;100.00
57668;BME280;43499;52.366;12.912;2023-02-13T01:17:05;103420.63;;;6.43;100.00
57668;BME280;43499;52.366;12.912;2023-02-13T01:18:06;103369.28;;;6.12;100.00
57668;BME280;43499;52.366;12.912;2023-02-13T01:19:22;103361.75;;;6.08;100.00
57668;BME280;43499;52.366;12.912;2023-02-13T01:20:33;103322.13;;;5.86;100.00
57668;BME280;43499;52.366;12.912;2023-02-13T01:21:37;103315.72;;;5.84;100.00
57668;BME280;43499;52.366;12.912;2023-02-13T01:22:39;103323.34;;;5.83;100.00
57668;BME280;43499;52.366;12.912;2023-02-13T01:23:47;103433.06;;;6.39;100.00
57668;BME280;43499;52.366;12.912;2023-02-13T01:24:51;103416.53;;;6.32;100.00
57668;BME280;43499;52.366;12.912;2023-02-13T01:25:53;103374.06;;;6.09;100.00
57668;BME280;43499;52.366;12.912;2023-02-13T01:26:54;103424.28;;;6.38;100.00
57668;BME280;43499;52.366;12.912;2023-02-13T01:27:58;103350.03;;;5.93;100.00
57668;BME280;43499;52.366;12.912;2023-02-13T01:29:02;103370.94;;;6.12;100.00
57668;BME280;43499;52.366;12.912;2023-02-13T01:30:18;103347.41;;;5.93;100.00
57668;BME280;43499;52.366;12.912;2023-02-13T01:31:48;103383.78;;;6.10;100.00
57668;BME280;43499;52.366;12.912;2023-02-13T01:37:59;103366.50;;;6.05;100.00
57668;BME280;43499;52.366;12.912;2023-02-13T01:41:53;103375.59;;;6.01;100.00
57668;BME280;43499;52.366;12.912;2023-02-13T01:47:05;103341.31;;;5.87;100.00
57668;BME280;43499;52.366;12.912;2023-02-13T01:56:36;103363.28;;;5.95;100.00
57668;BME280;43499;52.366;12.912;2023-02-13T01:58:57;103335.97;;;5.80;100.00
57668;BME280;43499;52.366;12.912;2023-02-13T02:02:41;103328.41;;;5.76;100.00
57668;BME280;43499;52.366;12.912;2023-02-13T02:05:42;103323.03;;;5.68;100.00
57668;BME280;43499;52.366;12.912;2023-02-13T02:07:45;103403.81;;;6.23;100.00
57668;BME280;43499;52.366;12.912;2023-02-13T02:17:23;103348.56;;;5.77;100.00
57668;BME280;43499;52.366;12.912;2023-02-13T02:19:09;103317.19;;;5.64;100.00
57668;BME280;43499;52.366;12.912;2023-02-13T02:58:29;103415.94;;;6.04;100.00
57668;BME280;43499;52.366;12.912;2023-02-13T03:00:29;103415.00;;;6.03;100.00
57668;BME280;43499;52.366;12.912;2023-02-13T03:11:17;103319.13;;;5.40;100.00
57668;BME280;43499;52.366;12.912;2023-02-13T03:13:50;103430.69;;;5.97;100.00
57668;BME280;43499;52.366;12.912;2023-02-13T03:26:38;103423.59;;;5.96;100.00
57668;BME280;43499;52.366;12.912;2023-02-13T03:35:45;103425.22;;;5.96;100.00
57668;BME280;43499;52.366;12.912;2023-02-13T03:38:07;103322.91;;;5.37;100.00
57668;BME280;43499;52.366;12.912;2023-02-13T03:50:17;103349.59;;;5.47;100.00
57668;BME280;43499;52.366;12.912;2023-02-13T03:52:24;103420.78;;;5.89;100.00
57668;BME280;43499;52.366;12.912;2023-02-13T03:53:29;103323.94;;;5.32;100.00
57668;BME280;43499;52.366;12.912;2023-02-13T03:57:15;103338.97;;;5.46;100.00
57668;BME280;43499;52.366;12.912;2023-02-13T03:59:37;103363.03;;;5.56;100.00
57668;BME280;43499;52.366;12.912;2023-02-13T04:05:25;103337.78;;;5.44;100.00
57668;BME280;43499;52.366;12.912;2023-02-13T04:07:41;103368.69;;;5.59;100.00
57668;BME280;43499;52.366;12.912;2023-02-13T04:09:44;103397.44;;;5.78;100.00
57668;BME280;43499;52.366;12.912;2023-02-13T04:11:32;103394.41;;;5.75;100.00
57668;BME280;43499;52.366;12.912;2023-02-13T04:15:37;103420.38;;;5.86;100.00
57668;BME280;43499;52.366;12.912;2023-02-13T04:20:20;103319.72;;;5.27;100.00
57668;BME280;43499;52.366;12.912;2023-02-13T04:26:30;103366.09;;;5.59;100.00
57668;BME280;43499;52.366;12.912;2023-02-13T04:28:28;103324.59;;;5.36;100.00
57668;BME280;43499;52.366;12.912;2023-02-13T04:30:44;103414.19;;;5.85;100.00
57668;BME280;43499;52.366;12.912;2023-02-13T04:35:54;103399.97;;;5.83;100.00
57668;BME280;43499;52.366;12.912;2023-02-13T04:37:25;103412.31;;;5.84;100.00
57668;BME280;43499;52.366;12.912;2023-02-13T04:39:39;103324.53;;;5.42;100.00
57668;BME280;43499;52.366;12.912;2023-02-13T04:41:19;103348.09;;;5.55;100.00
57668;BME280;43499;52.366;12.912;2023-02-13T04:51:54;103318.44;;;5.36;100.00
57668;BME280;43499;52.366;12.912;2023-02-13T04:53:44;103336.63;;;5.41;100.00
57668;BME280;43499;52.366;12.912;2023-02-13T04:55:31;103387.22;;;5.79;100.00
57668;BME280;43499;52.366;12.912;2023-02-13T04:59:28;103290.38;;;5.22;100.00
57668;BME280;43499;52.366;12.912;2023-02-13T05:01:50;103366.25;;;5.66;100.00
57668;BME280;43499;52.366;12.912;2023-02-13T05:03:45;103278.56;;;5.18;100.00
57668;BME280;43499;52.366;12.912;2023-02-13T05:07:44;103314.16;;;5.36;100.00
57668;BME280;43499;52.366;12.912;2023-02-13T05:12:26;103302.69;;;5.23;100.00
57668;BME280;43499;52.366;12.912;2023-02-13T05:14:37;103395.34;;;5.75;100.00
57668;BME280;43499;52.366;12.912;2023-02-13T05:17:01;103399.38;;;5.73;100.00
57668;BME280;43499;52.366;12.912;2023-02-13T05:23:51;103358.59;;;5.49;100.00
57668;BME280;43499;52.366;12.912;2023-02-13T05:27:26;103323.69;;;5.30;100.00
57668;BME280;43499;52.366;12.912;2023-02-13T05:32:46;103335.47;;;5.39;100.00
57668;BME280;43499;52.366;12.912;2023-02-13T05:40:10;103355.63;;;5.40;100.00
57668;BME280;43499;52.366;12.912;2023-02-13T05:41:50;103415.28;;;5.75;100.00
57668;BME280;43499;52.366;12.912;2023-02-13T05:46:44;103411.19;;;5.77;100.00
57668;BME280;43499;52.366;12.912;2023-02-13T05:59:17;103356.06;;;5.44;100.00
57668;BME280;43499;52.366;12.912;2023-02-13T06:06:28;103403.94;;;5.68;100.00
57668;BME280;43499;52.366;12.912;2023-02-13T06:09:17;103348.78;;;5.35;100.00
57668;BME280;43499;52.366;12.912;2023-02-13T06:11:30;103408.94;;;5.67;100.00
57668;BME280;43499;52.366;12.912;2023-02-13T06:13:35;103408.28;;;5.62;100.00
57668;BME280;43499;52.366;12.912;2023-02-13T06:21:15;103356.81;;;5.37;100.00
57668;BME280;43499;52.366;12.912;2023-02-13T06:26:42;103426.72;;;5.69;100.00
57668;BME280;43499;52.366;12.912;2023-02-13T06:30:55;103415.88;;;5.61;100.00
57668;BME280;43499;52.366;12.912;2023-02-13T06:40:57;103423.91;;;5.68;100.00
57668;BME280;43499;52.366;12.912;2023-02-13T06:45:36;103430.03;;;5.68;100.00
57668;BME280;43499;52.366;12.912;2023-02-13T06:47:44;103397.25;;;5.52;100.00
57668;BME280;43499;52.366;12.912;2023-02-13T06:49:43;103413.31;;;5.55;100.00
57668;BME280;43499;52.366;12.912;2023-02-13T06:55:06;103444.06;;;5.69;100.00
57668;BME280;43499;52.366;12.912;2023-02-13T06:59:37;103424.94;;;5.57;100.00
57668;BME280;43499;52.366;12.912;2023-02-13T07:01:19;103323.97;;;5.02;100.00
57668;BME280;43499;52.366;12.912;2023-02-13T07:05:10;103388.78;;;5.41;100.00
57668;BME280;43499;52.366;12.912;2023-02-13T07:07:15;103384.31;;;5.40;100.00
57668;BME280;43499;52.366;12.912;2023-02-13T07:09:22;103353.22;;;5.18;100.00
57668;BME280;43499;52.366;12.912;2023-02-13T07:11:45;103364.03;;;5.27;100.00
57668;BME280;43499;52.366;12.912;2023-02-13T07:13:33;103459.84;;;5.76;100.00
57668;BME280;43499;52.366;12.912;2023-02-13T07:15:17;103411.94;;;5.51;100.00
57668;BME280;43499;52.366;12.912;2023-02-13T07:18:08;103405.50;;;5.55;100.00
57668;BME280;43499;52.366;12.912;2023-02-13T07:25:48;103351.56;;;5.18;100.00
57668;BME280;43499;52.366;12.912;2023-02-13T07:27:20;103410.09;;;5.45;100.00
57668;BME280;43499;52.366;12.912;2023-02-13T07:33:50;103357.91;;;5.26;100.00
57668;BME280;43499;52.366;12.912;2023-02-13T07:34:57;103330.03;;;5.14;100.00
57668;BME280;43499;52.366;12.912;2023-02-13T07:36:10;103392.81;;;5.45;100.00
57668;BME280;43499;52.366;12.912;2023-02-13T07:37:14;103380.81;;;5.34;100.00
57668;BME280;43499;52.366;12.912;2023-02-13T07:38:25;103437.34;;;5.71;100.00
57668;BME280;43499;52.366;12.912;2023-02-13T07:39:26;103392.09;;;5.46;100.00
57668;BME280;43499;52.366;12.912;2023-02-13T07:40:27;103410.66;;;5.61;100.00
57668;BME280;43499;52.366;12.912;2023-02-13T07:41:28;103450.09;;;5.81;100.00
57668;BME280;43499;52.366;12.912;2023-02-13T07:42:32;103440.88;;;5.77;100.00
57668;BME280;43499;52.366;12.912;2023-02-13T07:43:34;103443.53;;;5.71;100.00
57668;BME280;43499;52.366;12.912;2023-02-13T07:44:35;103426.50;;;5.68;100.00
57668;BME280;43499;52.366;12.912;2023-02-13T07:45:36;103418.69;;;5.68;100.00
57668;BME280;43499;52.366;12.912;2023-02-13T07:46:37;103428.88;;;5.66;100.00
57668;BME280;43499;52.366;12.912;2023-02-13T07:47:38;103442.53;;;5.77;100.00
57668;BME280;43499;52.366;12.912;2023-02-13T07:48:40;103373.38;;;5.43;100.00
57668;BME280;43499;52.366;12.912;2023-02-13T07:49:41;103369.34;;;5.45;100.00
57668;BME280;43499;52.366;12.912;2023-02-13T07:50:44;103467.06;;;5.90;100.00
57668;BME280;43499;52.366;12.912;2023-02-13T07:51:45;103396.75;;;5.54;100.00
57668;BME280;43499;52.366;12.912;2023-02-13T07:52:58;103401.41;;;5.63;100.00
57668;BME280;43499;52.366;12.912;2023-02-13T07:54:07;103424.50;;;5.78;100.00
57668;BME280;43499;52.366;12.912;2023-02-13T07:55:08;103378.25;;;5.53;100.00
57668;BME280;43499;52.366;12.912;2023-02-13T07:56:11;103384.22;;;5.52;100.00
57668;BME280;43499;52.366;12.912;2023-02-13T07:57:13;103428.53;;;5.76;100.00
57668;BME280;43499;52.366;12.912;2023-02-13T07:58:15;103398.50;;;5.67;100.00
57668;BME280;43499;52.366;12.912;2023-02-13T07:59:19;103471.47;;;6.02;100.00
57668;BME280;43499;52.366;12.912;2023-02-13T08:00:23;103434.34;;;5.86;100.00
57668;BME280;43499;52.366;12.912;2023-02-13T08:01:27;103415.94;;;5.79;100.00
57668;BME280;43499;52.366;12.912;2023-02-13T08:02:28;103469.31;;;6.06;100.00
57668;BME280;43499;52.366;12.912;2023-02-13T08:03:37;103415.28;;;5.75;100.00
57668;BME280;43499;52.366;12.912;2023-02-13T08:04:47;103411.19;;;5.77;100.00
57668;BME280;43499;52.366;12.912;2023-02-13T08:05:48;103442.03;;;6.04;100.00
57668;BME280;43499;52.366;12.912;2023-02-13T08:06:50;103465.19;;;6.13;100.00
57668;BME280;43499;52.366;12.912;2023-02-13T08:07:51;103379.28;;;5.66;100.00
57668;BME280;43499;52.366;12.912;2023-02-13T08:09:01;103394.81;;;5.78;100.00
57668;BME280;43499;52.366;12.912;2023-02-13T08:10:21;103445.81;;;6.06;100.00
57668;BME280;43499;52.366;12.912;2023-02-13T08:11:49;103390.31;;;5.77;100.00
57668;BME280;43499;52.366;12.912;2023-02-13T08:12:53;103417.00;;;5.87;100.00
57668;BME280;43499;52.366;12.912;2023-02-13T08:13:54;103375.97;;;5.67;100.00
57668;BME280;43499;52.366;12.912;2023-02-13T08:14:56;103397.22;;;5.76;100.00
57668;BME280;43499;52.366;12.912;2023-02-13T08:16:03;103380.41;;;5.74;100.00
57668;BME280;43499;52.366;12.912;2023-02-13T08:17:14;103436.59;;;6.02;100.00
57668;BME280;43499;52.366;12.912;2023-02-13T08:18:16;103437.47;;;6.08;100.00
57668;BME280;43499;52.366;12.912;2023-02-13T08:19:46;103395.19;;;5.86;100.00
57668;BME280;43499;52.366;12.912;2023-02-13T08:20:50;103418.34;;;5.96;100.00
57668;BME280;43499;52.366;12.912;2023-02-13T08:21:51;103460.31;;;6.22;100.00
57668;BME280;43499;52.366;12.912;2023-02-13T08:23:02;103467.28;;;6.35;100.00
57668;BME280;43499;52.366;12.912;2023-02-13T08:24:06;103416.47;;;5.95;100.00
57668;BME280;43499;52.366;12.912;2023-02-13T08:25:12;103425.66;;;6.05;100.00
57668;BME280;43499;52.366;12.912;2023-02-13T08:26:16;103396.56;;;5.90;100.00
57668;BME280;43499;52.366;12.912;2023-02-13T08:27:18;103417.09;;;6.06;100.00
57668;BME280;43499;52.366;12.912;2023-02-13T08:28:36;103432.31;;;6.02;100.00
57668;BME280;43499;52.366;12.912;2023-02-13T08:29:41;103414.28;;;5.98;100.00
57668;BME280;43499;52.366;12.912;2023-02-13T08:30:42;103439.50;;;6.16;100.00
57668;BME280;43499;52.366;12.912;2023-02-13T08:31:43;103423.25;;;6.06;100.00
57668;BME280;43499;52.366;12.912;2023-02-13T08:32:44;103459.78;;;6.30;100.00
57668;BME280;43499;52.366;12.912;2023-02-13T08:33:51;103484.31;;;6.44;100.00
57668;BME280;43499;52.366;12.912;2023-02-13T08:35:18;103441.09;;;6.22;100.00
57668;BME280;43499;52.366;12.912;2023-02-13T08:36:32;103417.75;;;6.10;100.00
57668;BME280;43499;52.366;12.912;2023-02-13T08:37:43;103421.91;;;6.21;100.00
57668;BME280;43499;52.366;12.912;2023-02-13T08:38:48;103439.66;;;6.24;100.00
57668;BME280;43499;52.366;12.912;2023-02-13T08:39:49;103429.78;;;6.15;100.00
57668;BME280;43499;52.366;12.912;2023-02-13T08:40:50;103395.16;;;6.11;100.00
57668;BME280;43499;52.366;12.912;2023-02-13T08:42:00;103489.16;;;6.54;100.00
57668;BME280;43499;52.366;12.912;2023-02-13T08:43:05;103390.53;;;6.02;100.00
57668;BME280;43499;52.366;12.912;2023-02-13T08:44:09;103450.63;;;6.40;100.00
57668;BME280;43499;52.366;12.912;2023-02-13T08:45:13;103385.50;;;6.04;100.00
57668;BME280;43499;52.366;12.912;2023-02-13T08:47:37;103433.41;;;6.29;100.00
57668;BME280;43499;52.366;12.912;2023-02-13T08:48:56;103469.94;;;6.53;100.00
57668;BME280;43499;52.366;12.912;2023-02-13T08:50:04;103416.28;;;6.31;100.00
57668;BME280;43499;52.366;12.912;2023-02-13T08:51:16;103430.50;;;6.33;100.00
57668;BME280;43499;52.366;12.912;2023-02-13T08:52:34;103411.38;;;6.27;100.00
57668;BME280;43499;52.366;12.912;2023-02-13T08:53:35;103467.97;;;6.58;100.00
57668;BME280;43499;52.366;12.912;2023-02-13T08:55:04;103373.06;;;6.14;100.00
57668;BME280;43499;52.366;12.912;2023-02-13T08:56:17;103422.88;;;6.35;100.00
57668;BME280;43499;52.366;12.912;2023-02-13T08:57:25;103425.00;;;6.37;100.00
57668;BME280;43499;52.366;12.912;2023-02-13T08:58:58;103490.81;;;6.72;100.00
57668;BME280;43499;52.366;12.912;2023-02-13T09:00:13;103413.03;;;6.26;100.00
57668;BME280;43499;52.366;12.912;2023-02-13T09:01:38;103400.94;;;6.27;100.00
57668;BME280;43499;52.366;12.912;2023-02-13T09:03:01;103482.97;;;6.72;100.00
57668;BME280;43499;52.366;12.912;2023-02-13T09:04:08;103385.25;;;6.27;100.00
57668;BME280;43499;52.366;12.912;2023-02-13T09:05:26;103415.69;;;6.39;100.00
57668;BME280;43499;52.366;12.912;2023-02-13T09:06:33;103436.53;;;6.63;100.00
57668;BME280;43499;52.366;12.912;2023-02-13T09:08:00;103414.88;;;6.46;100.00
57668;BME280;43499;52.366;12.912;2023-02-13T09:09:14;103419.13;;;6.51;100.00
57668;BME280;43499;52.366;12.912;2023-02-13T09:10:37;103458.44;;;6.77;100.00
57668;BME280;43499;52.366;12.912;2023-02-13T09:11:47;103431.56;;;6.59;100.00
57668;BME280;43499;52.366;12.912;2023-02-13T09:13:44;103397.19;;;6.38;100.00
57668;BME280;43499;52.366;12.912;2023-02-13T09:14:46;103392.94;;;6.38;100.00
57668;BME280;43499;52.366;12.912;2023-02-13T09:15:50;103429.31;;;6.68;100.00
57668;BME280;43499;52.366;12.912;2023-02-13T09:16:51;103392.63;;;6.42;100.00
57668;BME280;43499;52.366;12.912;2023-02-13T09:18:09;103412.84;;;6.56;100.00
57668;BME280;43499;52.366;12.912;2023-02-13T09:19:34;103498.59;;;7.09;100.00
57668;BME280;43499;52.366;12.912;2023-02-13T09:21:08;103410.66;;;6.59;100.00
57668;BME280;43499;52.366;12.912;2023-02-13T09:22:10;103478.28;;;7.01;100.00
57668;BME280;43499;52.366;12.912;2023-02-13T09:23:17;103426.09;;;6.76;100.00
57668;BME280;43499;52.366;12.912;2023-02-13T09:24:25;103437.19;;;6.81;100.00
57668;BME280;43499;52.366;12.912;2023-02-13T09:25:27;103403.06;;;6.61;100.00
57668;BME280;43499;52.366;12.912;2023-02-13T09:26:32;103448.81;;;6.83;100.00
57668;BME280;43499;52.366;12.912;2023-02-13T09:27:41;103423.56;;;6.71;100.00
57668;BME280;43499;52.366;12.912;2023-02-13T09:28:48;103422.22;;;6.67;100.00
57668;BME280;43499;52.366;12.912;2023-02-13T09:30:25;103501.94;;;7.08;100.00
57668;BME280;43499;52.366;12.912;2023-02-13T09:31:34;103418.34;;;6.71;100.00
57668;BME280;43499;52.366;12.912;2023-02-13T09:32:40;103488.97;;;7.15;100.00
57668;BME280;43499;52.366;12.912;2023-02-13T09:33:51;103458.38;;;6.95;100.00
57668;BME280;43499;52.366;12.912;2023-02-13T09:35:27;103467.84;;;7.01;100.00
57668;BME280;43499;52.366;12.912;2023-02-13T09:36:28;103478.31;;;7.14;100.00
57668;BME280;43499;52.366;12.912;2023-02-13T09:37:30;103445.41;;;7.03;100.00
57668;BME280;43499;52.366;12.912;2023-02-13T09:38:34;103421.47;;;7.00;100.00
57668;BME280;43499;52.366;12.912;2023-02-13T09:39:41;103449.44;;;7.19;100.00
57668;BME280;43499;52.366;12.912;2023-02-13T09:41:03;103471.66;;;7.29;100.00
57668;BME280;43499;52.366;12.912;2023-02-13T09:42:16;103425.81;;;7.12;100.00
57668;BME280;43499;52.366;12.912;2023-02-13T09:43:31;103414.03;;;7.03;100.00
57668;BME280;43499;52.366;12.912;2023-02-13T09:44:41;103389.78;;;7.04;100.00
57668;BME280;43499;52.366;12.912;2023-02-13T09:45:47;103454.84;;;7.39;100.00
57668;BME280;43499;52.366;12.912;2023-02-13T09:46:49;103498.84;;;7.68;100.00
57668;BME280;43499;52.366;12.912;2023-02-13T09:47:51;103433.16;;;7.40;100.00
57668;BME280;43499;52.366;12.912;2023-02-13T09:48:54;103447.00;;;7.39;100.00
57668;BME280;43499;52.366;12.912;2023-02-13T09:50:11;103398.28;;;7.21;100.00
57668;BME280;43499;52.366;12.912;2023-02-13T09:51:24;103473.16;;;7.52;100.00
57668;BME280;43499;52.366;12.912;2023-02-13T09:52:32;103481.00;;;7.52;100.00
57668;BME280;43499;52.366;12.912;2023-02-13T09:53:34;103396.78;;;6.98;100.00
57668;BME280;43499;52.366;12.912;2023-02-13T09:54:47;103504.75;;;7.54;100.00
57668;BME280;43499;52.366;12.912;2023-02-13T09:56:09;103464.44;;;7.33;100.00
57668;BME280;43499;52.366;12.912;2023-02-13T09:57:34;103461.19;;;7.29;100.00
57668;BME280;43499;52.366;12.912;2023-02-13T09:59:00;103440.34;;;7.23;100.00
57668;BME280;43499;52.366;12.912;2023-02-13T10:00:26;103467.50;;;7.36;100.00
57668;BME280;43499;52.366;12.912;2023-02-13T10:01:34;103434.78;;;7.14;100.00
57668;BME280;43499;52.366;12.912;2023-02-13T10:06:57;103430.16;;;7.06;100.00
57668;BME280;43499;52.366;12.912;2023-02-13T10:11:03;103438.16;;;7.13;100.00
57668;BME280;43499;52.366;12.912;2023-02-13T10:12:15;103503.31;;;7.56;100.00
57668;BME280;43499;52.366;12.912;2023-02-13T10:13:47;103492.63;;;7.54;100.00
57668;BME280;43499;52.366;12.912;2023-02-13T10:15:15;103502.38;;;7.55;100.00
57668;BME280;43499;52.366;12.912;2023-02-13T10:16:21;103438.78;;;7.18;100.00
57668;BME280;43499;52.366;12.912;2023-02-13T10:17:34;103435.94;;;7.16;100.00
57668;BME280;43499;52.366;12.912;2023-02-13T10:18:48;103482.16;;;7.54;100.00
57668;BME280;43499;52.366;12.912;2023-02-13T10:19:56;103440.69;;;7.32;100.00
57668;BME280;43499;52.366;12.912;2023-02-13T10:21:02;103390.84;;;7.12;100.00
57668;BME280;43499;52.366;12.912;2023-02-13T10:22:23;103435.75;;;7.28;100.00
57668;BME280;43499;52.366;12.912;2023-02-13T10:23:39;103460.38;;;7.48;100.00
57668;BME280;43499;52.366;12.912;2023-02-13T10:24:56;103485.75;;;7.68;100.00
57668;BME280;43499;52.366;12.912;2023-02-13T10:26:05;103488.03;;;7.72;100.00
57668;BME280;43499;52.366;12.912;2023-02-13T10:27:24;103463.03;;;7.61;100.00
57668;BME280;43499;52.366;12.912;2023-02-13T10:28:43;103417.88;;;7.31;100.00
57668;BME280;43499;52.366;12.912;2023-02-13T10:30:23;103445.31;;;7.53;100.00
57668;BME280;43499;52.366;12.912;2023-02-13T10:31:26;103456.53;;;7.52;100.00
57668;BME280;43499;52.366;12.912;2023-02-13T10:32:51;103489.00;;;7.72;100.00
57668;BME280;43499;52.366;12.912;2023-02-13T10:34:24;103400.28;;;7.30;100.00
57668;BME280;43499;52.366;12.912;2023-02-13T10:35:29;103475.56;;;7.77;100.00
57668;BME280;43499;52.366;12.912;2023-02-13T10:36:43;103485.75;;;7.81;100.00
57668;BME280;43499;52.366;12.912;2023-02-13T10:37:47;103384.16;;;7.26;100.00
57668;BME280;43499;52.366;12.912;2023-02-13T10:40:09;103448.03;;;7.73;100.00
57668;BME280;43499;52.366;12.912;2023-02-13T10:41:50;103483.34;;;7.95;100.00